Terminal Aerodrome Forecast
Issued by NWS Jackson, KY

Home | Current Version | Previous Version | Text Only | Print | Product List | Glossary On
Versions: 1 2 3 4 5 6 7 8 9 10 11 12 13 14
350
FTUS43 KJKL 271120
TAFLOZ
TAF
KLOZ 271120Z 2712/2812 22006KT P6SM OVC040
     FM271400 24007KT P6SM VCSH BKN025
     FM271800 24007KT P6SM BKN040
     FM272200 24007KT 3SM -TSRA BKN050CB
     FM280000 23005KT P6SM BKN120
     FM280900 VRB03KT P6SM BKN015=

USA.gov is the U.S. government's official web portal to all federal, state and local government web resources and services.